Time;durP1;ratioP1;P1;durP2;ratioP2;P2;SDS_P1;SDS_P2;PMS_P1;PMS_P2;Temp;Humidity;BMP_temperature;BMP_pressure;BME280_temperature;BME280_humidity;BME280_pressure;Samples;Min_cycle;Max_cycle;Signal;HPM_P1;HPM_P2
2021/07/17 00:01:17;;;;;;;18.20;16.60;;;17.90;99.90;;;;;;5044820;28;20941;-73
2021/07/17 00:03:44;;;;;;;18.90;17.20;;;17.80;99.90;;;;;;5045212;28;20480;-74
2021/07/17 00:06:11;;;;;;;19.80;18.00;;;17.80;99.90;;;;;;5035190;28;20811;-74
2021/07/17 00:08:38;;;;;;;17.77;16.27;;;17.80;99.90;;;;;;5039035;28;20489;-74
2021/07/17 00:11:05;;;;;;;19.37;17.63;;;17.70;99.90;;;;;;5044945;28;20540;-74
2021/07/17 00:13:32;;;;;;;18.23;16.77;;;17.70;99.90;;;;;;5036586;28;20555;-74
2021/07/17 00:16:00;;;;;;;18.77;17.27;;;17.60;99.90;;;;;;5044329;28;20484;-74
2021/07/17 00:18:27;;;;;;;18.97;17.17;;;17.60;99.90;;;;;;5040994;28;20485;-75
2021/07/17 00:20:54;;;;;;;17.37;15.80;;;17.60;99.90;;;;;;5044268;28;20455;-75
2021/07/17 00:23:21;;;;;;;17.43;15.93;;;17.60;99.90;;;;;;5037353;28;20544;-74
2021/07/17 00:25:52;;;;;;;16.83;15.47;;;17.50;99.90;;;;;;5036568;28;20470;-73
2021/07/17 00:28:20;;;;;;;18.20;16.50;;;17.50;99.90;;;;;;5041285;28;20450;-74
2021/07/17 00:30:46;;;;;;;18.97;17.27;;;17.50;99.90;;;;;;5038984;28;20574;-74
2021/07/17 00:33:15;;;;;;;17.50;15.80;;;17.40;99.90;;;;;;5032846;28;20494;-73
2021/07/17 00:35:42;;;;;;;17.70;16.20;;;17.40;99.90;;;;;;5040005;28;21253;-74
2021/07/17 00:38:09;;;;;;;18.50;16.90;;;17.40;99.90;;;;;;5050912;28;20569;-73
2021/07/17 00:40:36;;;;;;;18.20;16.50;;;17.30;99.90;;;;;;5038705;28;20462;-74
2021/07/17 00:43:03;;;;;;;16.60;15.17;;;17.30;99.90;;;;;;5046749;28;20485;-74
2021/07/17 00:45:30;;;;;;;17.70;16.10;;;17.30;99.90;;;;;;5033966;28;20459;-75
2021/07/17 00:47:57;;;;;;;18.30;16.60;;;17.30;99.90;;;;;;5041339;28;20448;-74
2021/07/17 00:50:26;;;;;;;17.37;15.80;;;17.20;99.90;;;;;;5032672;28;20474;-74
2021/07/17 00:52:53;;;;;;;17.90;16.00;;;17.20;99.90;;;;;;5042361;28;20505;-74
2021/07/17 00:55:25;;;;;;;18.00;16.40;;;17.20;99.90;;;;;;5035946;28;20450;-74
2021/07/17 00:57:54;;;;;;;18.63;16.83;;;17.20;99.90;;;;;;5033577;28;20525;-75
2021/07/17 01:00:21;;;;;;;23.70;17.17;;;17.10;99.90;;;;;;5043316;28;20452;-74
2021/07/17 01:02:51;;;;;;;18.07;16.23;;;17.10;99.90;;;;;;5037366;28;20548;-75
2021/07/17 01:05:19;;;;;;;16.97;15.57;;;17.10;99.90;;;;;;5031919;28;20875;-74
2021/07/17 01:07:48;;;;;;;18.13;16.57;;;17.10;99.90;;;;;;5037159;28;20470;-74
2021/07/17 01:10:17;;;;;;;18.93;17.13;;;17.10;99.90;;;;;;5040231;28;20541;-73
2021/07/17 01:12:44;;;;;;;17.43;15.93;;;17.10;99.90;;;;;;5033699;28;20449;-73
2021/07/17 01:15:11;;;;;;;17.93;16.27;;;17.10;99.90;;;;;;5041786;28;20540;-74
2021/07/17 01:17:38;;;;;;;20.30;17.63;;;17.10;99.90;;;;;;5036090;28;20568;-74
2021/07/17 01:20:07;;;;;;;19.10;17.40;;;17.10;99.90;;;;;;5049823;28;20564;-74
2021/07/17 01:22:36;;;;;;;19.23;17.33;;;17.10;99.90;;;;;;5033294;28;20879;-74
2021/07/17 01:25:06;;;;;;;19.30;17.57;;;17.10;99.90;;;;;;5035143;28;20538;-75
2021/07/17 01:27:33;;;;;;;19.33;17.60;;;17.00;99.90;;;;;;5033830;28;20967;-74
2021/07/17 01:30:00;;;;;;;20.10;18.23;;;17.10;99.90;;;;;;5042387;28;20550;-75
2021/07/17 01:32:26;;;;;;;19.87;18.07;;;17.00;99.90;;;;;;5045486;28;20447;-74
2021/07/17 01:34:53;;;;;;;20.50;18.53;;;17.00;99.90;;;;;;5034901;28;20573;-75
2021/07/17 01:37:20;;;;;;;19.80;17.80;;;17.00;99.90;;;;;;5040614;28;20465;-74
2021/07/17 01:39:48;;;;;;;20.57;18.77;;;16.90;99.90;;;;;;5039439;28;20963;-74
2021/07/17 01:42:15;;;;;;;20.80;18.73;;;16.90;99.90;;;;;;5035275;28;20443;-75
2021/07/17 01:44:43;;;;;;;20.50;18.40;;;16.90;99.90;;;;;;5039210;28;20483;-75
2021/07/17 01:47:11;;;;;;;20.57;18.43;;;16.90;99.90;;;;;;5043661;28;20457;-75
2021/07/17 01:49:39;;;;;;;22.50;20.30;;;16.80;99.90;;;;;;5038202;28;20484;-75
2021/07/17 01:52:07;;;;;;;21.57;19.50;;;16.80;99.90;;;;;;5031882;28;20592;-75
2021/07/17 01:54:34;;;;;;;23.23;19.87;;;16.70;99.90;;;;;;5033567;28;20450;-75
2021/07/17 01:57:03;;;;;;;23.03;20.77;;;16.70;99.90;;;;;;5031085;28;20530;-73
2021/07/17 01:59:30;;;;;;;23.90;21.60;;;16.70;99.90;;;;;;5035840;28;20444;-75
2021/07/17 02:01:57;;;;;;;24.23;20.43;;;16.70;99.90;;;;;;5039417;28;20452;-72
2021/07/17 02:04:24;;;;;;;21.87;19.90;;;16.60;99.90;;;;;;5051681;28;20458;-74
2021/07/17 02:06:50;;;;;;;23.73;21.33;;;16.60;99.90;;;;;;5034510;28;20455;-75
2021/07/17 02:09:17;;;;;;;23.13;21.00;;;16.50;99.90;;;;;;5037871;28;20544;-75
2021/07/17 02:11:44;;;;;;;24.30;21.70;;;16.50;99.90;;;;;;5047386;28;20476;-74
2021/07/17 02:14:12;;;;;;;24.60;22.20;;;16.50;99.90;;;;;;5050358;28;20491;-74
2021/07/17 02:16:40;;;;;;;23.00;20.70;;;16.50;99.90;;;;;;5032260;28;20567;-75
2021/07/17 02:19:17;;;;;;;25.40;22.80;;;16.50;99.90;;;;;;5035823;28;20473;-74
2021/07/17 02:21:45;;;;;;;24.77;22.17;;;16.50;99.90;;;;;;5041415;28;20453;-75
2021/07/17 02:24:12;;;;;;;23.77;21.23;;;16.60;99.90;;;;;;5038106;28;20898;-74
2021/07/17 02:26:39;;;;;;;24.13;21.30;;;16.60;99.90;;;;;;5049457;28;20539;-74
2021/07/17 02:29:06;;;;;;;23.43;21.23;;;16.60;99.90;;;;;;5044170;28;20817;-75
2021/07/17 02:31:34;;;;;;;23.63;21.30;;;16.60;99.90;;;;;;5040516;28;20449;-74
2021/07/17 02:34:01;;;;;;;23.30;21.00;;;16.80;99.90;;;;;;5044006;28;20960;-75
2021/07/17 02:36:27;;;;;;;23.10;20.83;;;16.80;99.90;;;;;;5045783;28;20546;-73
2021/07/17 02:38:54;;;;;;;21.43;19.20;;;16.90;99.90;;;;;;5038322;28;20479;-74
2021/07/17 02:41:22;;;;;;;22.00;19.70;;;17.00;99.90;;;;;;5030816;28;20455;-75
2021/07/17 02:43:49;;;;;;;21.20;19.30;;;17.00;99.90;;;;;;5035230;28;20468;-74
2021/07/17 02:46:16;;;;;;;23.03;20.67;;;17.10;99.90;;;;;;5040846;28;20542;-75
2021/07/17 02:48:44;;;;;;;20.30;18.50;;;17.20;99.90;;;;;;5031578;28;20456;-75
2021/07/17 02:51:11;;;;;;;21.00;18.87;;;17.20;99.90;;;;;;5036709;28;20444;-74
2021/07/17 02:53:38;;;;;;;20.80;18.80;;;17.20;99.90;;;;;;5034100;28;20457;-73
2021/07/17 02:56:05;;;;;;;20.20;18.10;;;17.20;99.90;;;;;;5035312;28;20469;-74
2021/07/17 02:58:32;;;;;;;21.30;19.07;;;17.30;99.90;;;;;;5028790;28;20543;-74
2021/07/17 03:00:58;;;;;;;22.30;20.17;;;17.30;99.90;;;;;;5034802;28;20501;-74
2021/07/17 03:03:25;;;;;;;22.20;19.87;;;17.30;99.90;;;;;;5034061;28;20451;-73
2021/07/17 03:05:54;;;;;;;20.83;18.80;;;17.40;99.90;;;;;;5033938;28;20749;-74
2021/07/17 03:08:22;;;;;;;21.47;19.27;;;17.40;99.90;;;;;;5043194;28;20471;-74
2021/07/17 03:10:50;;;;;;;21.60;19.57;;;17.50;99.90;;;;;;5028187;28;20440;-74
2021/07/17 03:13:17;;;;;;;22.13;19.80;;;17.50;99.90;;;;;;5044153;28;21257;-74
2021/07/17 03:15:46;;;;;;;27.77;20.90;;;17.50;99.90;;;;;;5038014;28;20461;-74
2021/07/17 03:18:13;;;;;;;21.67;19.57;;;17.60;99.90;;;;;;5045992;28;20572;-74
2021/07/17 03:20:40;;;;;;;22.80;20.40;;;17.50;99.90;;;;;;5045766;28;20459;-74
2021/07/17 03:23:08;;;;;;;20.70;18.60;;;17.50;99.90;;;;;;5044612;28;20524;-74
2021/07/17 03:25:35;;;;;;;22.10;20.07;;;17.50;99.90;;;;;;5042340;28;20448;-74
2021/07/17 03:28:02;;;;;;;22.13;19.93;;;17.50;99.90;;;;;;5043838;28;20525;-74
2021/07/17 03:30:29;;;;;;;26.40;21.67;;;17.40;99.90;;;;;;5030440;28;20452;-74
2021/07/17 03:32:55;;;;;;;25.33;22.53;;;17.40;99.90;;;;;;5039855;28;20541;-74
2021/07/17 03:35:24;;;;;;;25.97;23.17;;;17.40;99.90;;;;;;5046384;28;20467;-74
2021/07/17 03:37:50;;;;;;;25.67;22.93;;;17.50;99.90;;;;;;5045472;28;20466;-74
2021/07/17 03:40:19;;;;;;;24.97;22.23;;;17.50;99.90;;;;;;5036683;28;20451;-74
2021/07/17 03:42:45;;;;;;;31.13;22.30;;;17.60;99.90;;;;;;5036637;28;20450;-74
2021/07/17 03:45:13;;;;;;;29.27;21.97;;;17.60;99.90;;;;;;5037326;28;20498;-74
2021/07/17 03:47:39;;;;;;;27.30;20.17;;;17.60;99.90;;;;;;5035645;28;20539;-73
2021/07/17 03:50:07;;;;;;;26.50;23.13;;;17.70;99.90;;;;;;5029013;28;20613;-74
2021/07/17 03:52:34;;;;;;;24.73;21.77;;;17.70;99.90;;;;;;5038455;28;20613;-75
2021/07/17 03:55:01;;;;;;;25.50;21.50;;;17.70;99.90;;;;;;5036562;28;20534;-73
2021/07/17 03:57:29;;;;;;;24.87;20.23;;;17.80;99.90;;;;;;5031945;28;20538;-74
2021/07/17 03:59:56;;;;;;;23.33;21.03;;;17.80;99.90;;;;;;5037144;28;20460;-72
2021/07/17 04:02:23;;;;;;;27.53;23.27;;;17.80;99.90;;;;;;5034471;28;20455;-75
2021/07/17 04:04:49;;;;;;;24.13;20.97;;;17.80;99.90;;;;;;5038632;28;21107;-75
2021/07/17 04:07:16;;;;;;;23.70;20.90;;;17.90;99.90;;;;;;5035762;28;20484;-75
2021/07/17 04:09:43;;;;;;;28.03;21.90;;;18.00;99.90;;;;;;5034324;28;20462;-74
2021/07/17 04:12:10;;;;;;;26.33;22.13;;;17.80;99.90;;;;;;5030283;28;20547;-74
2021/07/17 04:14:38;;;;;;;27.40;23.10;;;17.80;99.90;;;;;;5038813;28;20460;-74
2021/07/17 04:17:05;;;;;;;24.00;21.30;;;18.00;99.90;;;;;;5041475;28;20989;-74
2021/07/17 04:19:32;;;;;;;23.43;20.60;;;17.90;99.90;;;;;;5027903;28;20580;-74
2021/07/17 04:21:59;;;;;;;23.53;21.13;;;17.90;99.90;;;;;;5027715;28;21026;-74
2021/07/17 04:24:26;;;;;;;25.93;22.07;;;18.00;99.90;;;;;;5035084;28;20451;-74
2021/07/17 04:26:52;;;;;;;25.27;22.33;;;18.00;99.90;;;;;;5033836;28;20538;-75
2021/07/17 04:29:19;;;;;;;26.20;22.80;;;17.90;99.90;;;;;;5032518;28;20447;-74
2021/07/17 04:31:47;;;;;;;24.20;21.57;;;17.90;99.90;;;;;;5039418;28;20445;-74
2021/07/17 04:34:14;;;;;;;30.03;22.40;;;17.90;99.90;;;;;;5035729;28;21049;-74
2021/07/17 04:36:41;;;;;;;32.70;22.40;;;17.90;99.90;;;;;;5047226;28;20462;-75
2021/07/17 04:39:08;;;;;;;31.90;24.47;;;17.90;99.90;;;;;;5046208;28;20538;-74
2021/07/17 04:41:35;;;;;;;29.20;21.57;;;17.90;99.90;;;;;;5038860;28;20449;-73
2021/07/17 04:44:01;;;;;;;25.17;22.47;;;17.90;99.90;;;;;;5047552;28;20450;-74
2021/07/17 04:46:28;;;;;;;29.83;21.13;;;18.00;99.80;;;;;;5039108;28;20531;-74
2021/07/17 04:48:56;;;;;;;24.43;22.03;;;18.10;98.80;;;;;;5034528;28;20460;-74
2021/07/17 04:51:24;;;;;;;31.47;22.70;;;18.00;99.30;;;;;;5034806;28;20535;-74
2021/07/17 04:53:50;;;;;;;25.40;21.73;;;18.00;99.30;;;;;;5032441;28;20530;-74
2021/07/17 04:56:17;;;;;;;25.67;22.47;;;18.10;99.30;;;;;;5034617;28;21032;-74
2021/07/17 04:58:45;;;;;;;26.93;22.30;;;18.00;99.20;;;;;;5034253;28;20543;-74
2021/07/17 05:01:12;;;;;;;26.13;22.43;;;18.00;99.40;;;;;;5038971;28;20461;-74
2021/07/17 05:03:39;;;;;;;27.20;22.43;;;18.00;99.70;;;;;;5036515;28;20439;-74
2021/07/17 05:06:07;;;;;;;25.13;22.50;;;18.10;99.40;;;;;;5035833;28;21299;-74
2021/07/17 05:08:34;;;;;;;27.43;22.23;;;18.10;99.00;;;;;;5051165;28;20891;-74
2021/07/17 05:11:01;;;;;;;23.97;21.37;;;18.10;98.60;;;;;;5046164;28;20541;-74
2021/07/17 05:13:28;;;;;;;28.77;22.73;;;18.10;98.40;;;;;;5044494;28;20539;-74
2021/07/17 05:15:54;;;;;;;34.63;23.43;;;18.10;98.30;;;;;;5050925;28;20520;-74
2021/07/17 05:18:22;;;;;;;30.23;22.37;;;18.10;98.80;;;;;;5040276;28;20547;-74
2021/07/17 05:20:49;;;;;;;26.33;23.00;;;18.00;99.50;;;;;;5048751;28;20537;-74
2021/07/17 05:23:17;;;;;;;25.50;22.73;;;18.00;99.70;;;;;;5045625;28;20452;-74
2021/07/17 05:25:46;;;;;;;31.43;23.00;;;18.00;99.30;;;;;;5034580;28;20437;-73
2021/07/17 05:28:13;;;;;;;30.83;22.83;;;18.00;99.50;;;;;;5044627;28;20543;-74
2021/07/17 05:30:40;;;;;;;29.70;22.93;;;18.00;99.70;;;;;;5045074;28;20450;-74
2021/07/17 05:33:07;;;;;;;34.77;25.50;;;18.00;99.50;;;;;;5041999;28;20878;-74
2021/07/17 05:35:34;;;;;;;26.20;23.27;;;18.00;99.30;;;;;;5032850;28;20453;-73
2021/07/17 05:38:02;;;;;;;33.20;24.80;;;17.90;99.90;;;;;;5046316;28;20526;-75
2021/07/17 05:40:30;;;;;;;35.83;23.70;;;17.90;99.90;;;;;;5049408;28;20442;-75
2021/07/17 05:42:57;;;;;;;31.83;23.97;;;17.90;99.40;;;;;;5067072;28;20463;-75
2021/07/17 05:45:24;;;;;;;30.00;21.77;;;18.00;99.60;;;;;;5042228;28;20475;-75
2021/07/17 05:47:51;;;;;;;26.43;22.27;;;18.00;99.70;;;;;;5046780;28;20451;-74
2021/07/17 05:50:19;;;;;;;25.67;23.00;;;18.00;99.80;;;;;;5037858;28;20435;-75
2021/07/17 05:52:46;;;;;;;27.40;22.40;;;18.00;99.10;;;;;;5042097;28;20519;-74
2021/07/17 05:55:14;;;;;;;32.10;23.87;;;17.90;99.90;;;;;;5042924;28;20455;-74
2021/07/17 05:57:45;;;;;;;29.03;23.40;;;17.90;99.60;;;;;;5038697;28;20450;-74
2021/07/17 06:00:13;;;;;;;30.57;23.07;;;18.00;99.40;;;;;;5039563;28;20860;-75
2021/07/17 06:02:40;;;;;;;32.10;23.70;;;18.00;99.20;;;;;;5065993;28;20427;-74
2021/07/17 06:05:08;;;;;;;31.50;22.60;;;18.10;98.50;;;;;;5054212;28;20457;-74
2021/07/17 06:07:35;;;;;;;27.60;22.90;;;18.10;98.50;;;;;;5046074;28;20459;-74
2021/07/17 06:10:02;;;;;;;27.43;23.50;;;18.00;98.60;;;;;;5035952;28;20566;-74
2021/07/17 06:12:29;;;;;;;26.03;23.17;;;18.10;99.10;;;;;;5035082;28;20860;-74
2021/07/17 06:14:57;;;;;;;28.77;22.97;;;18.20;98.40;;;;;;5050713;28;20483;-74
2021/07/17 06:17:24;;;;;;;30.80;22.60;;;18.20;98.30;;;;;;5038347;28;20484;-75
2021/07/17 06:19:51;;;;;;;34.30;24.70;;;18.30;97.80;;;;;;5046745;28;20483;-75
2021/07/17 06:22:18;;;;;;;31.33;24.47;;;18.20;99.10;;;;;;5044584;28;20498;-75
2021/07/17 06:24:45;;;;;;;30.40;24.77;;;18.10;99.90;;;;;;5044784;28;20448;-75
2021/07/17 06:27:12;;;;;;;34.53;24.23;;;18.00;99.90;;;;;;5039880;28;20451;-75
2021/07/17 06:29:40;;;;;;;29.10;25.23;;;18.00;99.90;;;;;;5046878;28;20503;-75
2021/07/17 06:32:08;;;;;;;39.90;25.80;;;18.00;99.90;;;;;;5049138;28;20946;-75
2021/07/17 06:34:35;;;;;;;35.30;25.73;;;17.90;99.90;;;;;;5051300;28;20452;-76
2021/07/17 06:37:02;;;;;;;33.13;26.33;;;17.90;99.90;;;;;;5040645;28;20487;-76
2021/07/17 06:39:29;;;;;;;33.23;24.27;;;18.00;99.90;;;;;;5040688;28;20556;-75
2021/07/17 06:41:56;;;;;;;30.40;23.77;;;18.00;99.90;;;;;;5032975;28;20790;-75
2021/07/17 06:44:23;;;;;;;26.07;23.20;;;18.20;98.60;;;;;;5045511;28;20455;-77
2021/07/17 06:46:50;;;;;;;27.27;21.60;;;18.20;98.70;;;;;;5031075;28;20514;-76
2021/07/17 06:49:18;;;;;;;22.27;19.83;;;18.40;97.90;;;;;;5031502;28;21058;-77
2021/07/17 06:51:45;;;;;;;25.00;19.47;;;18.40;96.60;;;;;;5039561;28;20504;-76
2021/07/17 06:54:12;;;;;;;24.77;19.70;;;18.50;96.50;;;;;;5049893;28;20452;-75
2021/07/17 06:56:40;;;;;;;20.67;18.43;;;18.60;95.90;;;;;;5033425;28;20484;-75
2021/07/17 06:59:07;;;;;;;21.07;19.03;;;18.60;96.20;;;;;;5045053;28;20526;-76
2021/07/17 07:01:33;;;;;;;21.83;17.97;;;18.60;96.30;;;;;;5034248;28;20546;-76
2021/07/17 07:04:00;;;;;;;18.10;16.60;;;18.60;95.30;;;;;;5035687;28;20539;-75
2021/07/17 07:06:28;;;;;;;19.37;17.47;;;18.50;96.20;;;;;;5035384;28;20542;-77
2021/07/17 07:08:55;;;;;;;19.80;17.70;;;18.40;96.90;;;;;;5045676;28;20518;-76
2021/07/17 07:11:22;;;;;;;19.50;17.80;;;18.40;96.60;;;;;;5038098;28;20821;-75
2021/07/17 07:13:49;;;;;;;21.47;19.17;;;18.30;97.60;;;;;;5032247;28;20486;-75
2021/07/17 07:16:16;;;;;;;21.67;19.57;;;18.20;98.20;;;;;;5046358;28;20479;-75
2021/07/17 07:18:43;;;;;;;23.53;21.03;;;18.20;98.70;;;;;;5029325;28;20488;-75
2021/07/17 07:21:10;;;;;;;24.43;20.87;;;18.20;99.00;;;;;;5036375;28;20536;-75
2021/07/17 07:23:38;;;;;;;23.63;21.20;;;18.30;98.80;;;;;;5034290;28;20453;-76
2021/07/17 07:26:05;;;;;;;26.00;20.10;;;18.40;98.20;;;;;;5041439;28;20466;-76
2021/07/17 07:28:32;;;;;;;24.57;21.70;;;18.50;97.60;;;;;;5037556;28;20472;-76
2021/07/17 07:30:58;;;;;;;24.03;21.57;;;18.50;97.00;;;;;;5048453;28;20472;-75
2021/07/17 07:33:25;;;;;;;24.80;21.47;;;18.50;97.00;;;;;;5049740;28;20499;-76
2021/07/17 07:35:52;;;;;;;28.03;22.77;;;18.50;97.40;;;;;;5048442;28;20448;-75
2021/07/17 07:38:19;;;;;;;25.30;22.70;;;18.50;97.00;;;;;;5046613;28;20459;-75
2021/07/17 07:40:47;;;;;;;30.77;21.80;;;18.60;97.00;;;;;;5039148;28;20527;-76
2021/07/17 07:43:14;;;;;;;23.70;21.27;;;18.70;95.80;;;;;;5044047;28;20538;-75
2021/07/17 07:45:41;;;;;;;30.43;22.20;;;18.80;95.70;;;;;;5037846;28;20544;-75
2021/07/17 07:48:08;;;;;;;26.90;24.10;;;18.90;95.10;;;;;;5045813;28;20465;-75
2021/07/17 07:50:35;;;;;;;27.10;22.33;;;19.00;94.80;;;;;;5039600;28;21060;-75
2021/07/17 07:53:02;;;;;;;27.97;21.00;;;19.20;93.30;;;;;;5044754;28;20459;-76
2021/07/17 07:55:28;;;;;;;23.90;21.33;;;19.10;94.30;;;;;;5048677;28;20465;-76
2021/07/17 07:57:57;;;;;;;24.00;21.17;;;19.10;94.60;;;;;;5048400;28;21317;-77
2021/07/17 08:00:24;;;;;;;26.03;22.73;;;19.10;94.30;;;;;;5045178;28;20494;-76
2021/07/17 08:02:50;;;;;;;24.93;21.77;;;19.30;93.90;;;;;;5036780;28;20827;-77
2021/07/17 08:05:17;;;;;;;31.40;22.77;;;19.30;93.20;;;;;;5043971;28;20488;-75
2021/07/17 08:07:44;;;;;;;22.83;20.57;;;19.20;93.60;;;;;;5040352;28;20545;-76
2021/07/17 08:10:12;;;;;;;27.00;20.70;;;19.30;93.40;;;;;;5048372;28;20497;-76
2021/07/17 08:12:38;;;;;;;30.10;21.53;;;19.30;93.40;;;;;;5040944;28;20485;-76
2021/07/17 08:15:08;;;;;;;25.20;21.93;;;19.40;92.90;;;;;;5044418;28;20480;-74
2021/07/17 08:17:35;;;;;;;25.10;21.40;;;19.30;92.90;;;;;;5051054;28;20506;-73
2021/07/17 08:20:07;;;;;;;27.03;21.20;;;19.30;93.40;;;;;;5051288;28;20547;-73
2021/07/17 08:22:34;;;;;;;29.17;22.47;;;19.20;93.50;;;;;;5053887;28;20456;-72
2021/07/17 08:25:01;;;;;;;24.20;21.40;;;19.30;93.40;;;;;;5051529;28;21182;-73
2021/07/17 08:27:28;;;;;;;23.77;19.23;;;19.50;92.90;;;;;;5049251;28;20444;-73
2021/07/17 08:29:54;;;;;;;27.43;21.47;;;19.70;92.30;;;;;;5048589;28;20455;-73
2021/07/17 08:32:23;;;;;;;24.00;20.70;;;19.80;91.90;;;;;;5051872;28;20554;-73
2021/07/17 08:34:52;;;;;;;22.43;20.00;;;19.70;91.90;;;;;;5048879;28;20475;-73
2021/07/17 08:37:19;;;;;;;23.30;19.33;;;19.80;91.90;;;;;;5051739;28;20456;-75
2021/07/17 08:39:46;;;;;;;22.73;20.17;;;20.00;91.50;;;;;;5044534;28;20471;-75
2021/07/17 08:42:16;;;;;;;23.00;19.70;;;20.30;90.80;;;;;;5040776;28;20547;-74
2021/07/17 08:44:45;;;;;;;24.87;19.03;;;20.30;90.90;;;;;;5049582;28;20464;-74
2021/07/17 08:47:12;;;;;;;20.97;18.77;;;20.20;90.70;;;;;;5045035;28;20470;-74
2021/07/17 08:49:41;;;;;;;25.63;19.07;;;20.10;90.90;;;;;;5044123;28;21059;-74
2021/07/17 08:52:08;;;;;;;29.43;20.57;;;20.10;90.90;;;;;;5044966;28;20456;-74
2021/07/17 08:54:35;;;;;;;22.27;20.17;;;20.20;91.00;;;;;;5049332;28;20555;-74
2021/07/17 08:57:02;;;;;;;22.13;19.73;;;20.30;90.80;;;;;;5037330;28;20461;-75
2021/07/17 08:59:29;;;;;;;22.10;19.80;;;20.20;90.70;;;;;;5037819;28;20540;-74
2021/07/17 09:01:56;;;;;;;23.37;19.70;;;20.10;90.90;;;;;;5043696;28;21048;-74
2021/07/17 09:04:26;;;;;;;23.43;19.27;;;20.00;91.10;;;;;;5043715;28;20533;-73
2021/07/17 09:06:54;;;;;;;20.53;18.57;;;20.20;91.00;;;;;;5048198;28;20453;-73
2021/07/17 09:09:32;;;;;;;20.60;18.53;;;20.30;90.90;;;;;;5044816;28;20560;-74
2021/07/17 09:11:59;;;;;;;20.73;18.77;;;20.50;90.60;;;;;;5040197;28;20537;-75
2021/07/17 09:14:37;;;;;;;20.93;17.30;;;20.70;90.20;;;;;;5043008;28;20499;-75
2021/07/17 09:17:05;;;;;;;23.80;16.87;;;21.10;89.70;;;;;;5033859;28;20477;-75
2021/07/17 09:19:33;;;;;;;17.80;16.00;;;21.90;87.10;;;;;;5033036;28;21027;-75
2021/07/17 09:22:03;;;;;;;16.77;15.27;;;22.30;85.00;;;;;;5050984;28;20470;-75
2021/07/17 09:24:30;;;;;;;19.57;15.50;;;22.50;83.50;;;;;;5041586;28;20446;-77
2021/07/17 09:26:59;;;;;;;19.10;15.47;;;22.90;82.10;;;;;;5047938;28;20477;-77
2021/07/17 09:29:35;;;;;;;14.73;13.33;;;23.10;81.50;;;;;;5048382;28;20832;-76
2021/07/17 09:32:02;;;;;;;16.53;12.60;;;23.30;79.80;;;;;;5047354;28;20449;-78
2021/07/17 09:34:31;;;;;;;16.43;13.70;;;23.50;79.20;;;;;;5042680;28;20445;-77
2021/07/17 09:37:00;;;;;;;18.40;13.80;;;23.50;78.50;;;;;;5055983;28;20503;-77
2021/07/17 09:39:32;;;;;;;14.97;13.57;;;23.70;78.00;;;;;;5049205;28;20552;-77
2021/07/17 09:42:01;;;;;;;17.30;13.07;;;23.30;78.50;;;;;;5045995;28;20540;-77
2021/07/17 09:44:29;;;;;;;14.77;13.37;;;23.00;78.60;;;;;;5042817;28;20447;-76
2021/07/17 09:46:57;;;;;;;13.97;12.50;;;22.80;79.30;;;;;;5043590;28;20441;-77
2021/07/17 09:49:26;;;;;;;14.20;12.83;;;22.60;79.70;;;;;;5043845;28;20505;-76
2021/07/17 09:52:07;;;;;;;13.03;11.83;;;22.50;79.70;;;;;;5046814;28;20438;-80
2021/07/17 09:54:36;;;;;;;13.77;12.37;;;22.70;80.10;;;;;;5049842;28;20513;-77
2021/07/17 09:57:03;;;;;;;14.97;13.50;;;22.40;79.80;;;;;;5056551;28;20489;-76
2021/07/17 09:59:30;;;;;;;14.77;13.27;;;22.50;80.30;;;;;;5048862;28;20459;-77
2021/07/17 10:01:57;;;;;;;13.43;12.33;;;22.30;80.30;;;;;;5039470;28;20485;-76
2021/07/17 10:04:24;;;;;;;13.63;12.33;;;22.30;81.00;;;;;;5045277;28;20476;-76
2021/07/17 10:06:58;;;;;;;13.63;12.33;;;22.20;80.10;;;;;;5048538;28;20509;-77
2021/07/17 10:09:32;;;;;;;15.23;13.60;;;21.80;81.00;;;;;;5041413;28;20467;-77
2021/07/17 10:12:03;;;;;;;13.73;12.43;;;21.80;81.70;;;;;;5053273;28;20448;-77
2021/07/17 10:14:34;;;;;;;14.23;12.87;;;21.80;81.60;;;;;;5050911;28;20527;-76
2021/07/17 10:17:06;;;;;;;14.10;12.90;;;21.40;82.20;;;;;;5051786;28;20540;-77
2021/07/17 10:19:33;;;;;;;14.60;13.10;;;21.70;82.30;;;;;;5043731;28;20523;-78
2021/07/17 10:22:01;;;;;;;13.00;11.70;;;21.90;82.10;;;;;;5047949;28;20496;-79
2021/07/17 10:24:29;;;;;;;13.60;12.30;;;22.30;81.10;;;;;;5044002;28;20451;-79
2021/07/17 10:26:57;;;;;;;13.30;11.90;;;22.40;80.60;;;;;;5055227;28;20473;-78
2021/07/17 10:29:27;;;;;;;11.47;10.30;;;22.70;79.30;;;;;;5057342;28;21136;-85
2021/07/17 10:32:00;;;;;;;11.50;10.40;;;22.80;78.40;;;;;;5063497;28;20522;-85
2021/07/17 10:34:28;;;;;;;11.03;9.83;;;23.00;78.50;;;;;;5056068;28;20464;-84
2021/07/17 10:37:02;;;;;;;11.87;10.60;;;22.70;78.20;;;;;;5050201;28;20542;-86
2021/07/17 10:42:24;;;;;;;13.03;11.83;;;22.20;79.40;;;;;;5052103;28;20480;-84
2021/07/17 10:44:55;;;;;;;12.63;11.33;;;22.00;79.90;;;;;;5053505;28;20461;-84
2021/07/17 10:47:23;;;;;;;11.97;10.77;;;22.00;80.20;;;;;;5048177;28;20448;-83
2021/07/17 10:49:51;;;;;;;12.77;11.47;;;21.90;79.90;;;;;;5059462;28;20522;-85
2021/07/17 10:52:37;;;;;;;14.47;11.40;;;21.80;80.20;;;;;;5062617;28;20448;-84
2021/07/17 10:55:27;;;;;;;14.40;12.30;;;21.50;80.90;;;;;;5063812;28;20451;-84
2021/07/17 10:57:56;;;;;;;13.57;12.27;;;21.40;81.70;;;;;;5056595;28;20486;-85
2021/07/17 11:00:46;;;;;;;12.53;11.43;;;21.50;82.10;;;;;;5045308;28;20461;-85
2021/07/17 11:03:38;;;;;;;12.60;11.40;;;21.40;81.90;;;;;;5058465;28;20473;-85
2021/07/17 11:06:23;;;;;;;13.17;10.80;;;21.30;82.30;;;;;;5055413;28;20797;-83
2021/07/17 11:08:51;;;;;;;13.40;12.07;;;21.30;83.10;;;;;;5053276;28;20469;-83
2021/07/17 11:17:10;;;;;;;13.53;12.17;;;21.90;81.50;;;;;;5053112;28;20458;-83
2021/07/17 11:19:37;;;;;;;13.63;11.40;;;22.10;81.10;;;;;;5046204;28;20474;-80
2021/07/17 11:22:11;;;;;;;11.80;10.70;;;22.20;80.80;;;;;;5057430;28;20505;-80
2021/07/17 11:24:38;;;;;;;12.63;11.40;;;21.70;81.70;;;;;;5050215;28;20454;-81
2021/07/17 11:27:09;;;;;;;13.67;12.27;;;21.60;82.20;;;;;;5067496;28;20446;-80
2021/07/17 11:29:40;;;;;;;14.10;12.70;;;21.30;82.90;;;;;;5061597;28;20460;-81
2021/07/17 11:32:11;;;;;;;13.20;11.87;;;21.30;82.90;;;;;;5059251;28;20445;-81
2021/07/17 11:34:49;;;;;;;12.90;11.80;;;21.20;83.70;;;;;;5064246;28;20450;-81
2021/07/17 11:37:20;;;;;;;15.00;13.50;;;21.10;84.40;;;;;;5050745;28;21251;-79
2021/07/17 11:39:49;;;;;;;14.27;12.80;;;21.30;84.60;;;;;;5055956;28;20521;-79
2021/07/17 11:42:18;;;;;;;14.73;13.33;;;21.10;85.10;;;;;;5059834;28;20468;-80
2021/07/17 11:44:47;;;;;;;16.00;13.53;;;21.10;85.70;;;;;;5054032;28;20454;-80
2021/07/17 11:47:18;;;;;;;14.37;12.83;;;21.10;86.50;;;;;;5058959;28;21031;-80
2021/07/17 11:49:47;;;;;;;15.10;13.50;;;21.10;86.20;;;;;;5053663;28;20459;-80
2021/07/17 11:52:25;;;;;;;13.67;12.27;;;21.20;86.10;;;;;;5054044;28;20469;-80
2021/07/17 11:54:55;;;;;;;15.17;12.27;;;21.30;86.00;;;;;;5064861;28;20473;-79
2021/07/17 11:57:26;;;;;;;14.37;12.97;;;21.30;85.80;;;;;;5048081;28;20480;-81
2021/07/17 12:00:04;;;;;;;12.63;11.40;;;21.20;86.10;;;;;;5048021;28;20450;-81
2021/07/17 12:02:33;;;;;;;13.33;12.00;;;21.20;86.40;;;;;;5061204;28;20464;-80
2021/07/17 12:05:04;;;;;;;13.70;12.40;;;21.20;86.90;;;;;;5064431;28;20443;-81
2021/07/17 12:07:35;;;;;;;14.23;12.73;;;21.20;87.00;;;;;;5066397;28;20464;-80
2021/07/17 12:10:05;;;;;;;15.23;13.20;;;21.20;86.80;;;;;;5057804;28;20457;-81
2021/07/17 12:12:34;;;;;;;14.67;13.33;;;21.10;87.50;;;;;;5071144;28;20475;-80
2021/07/17 12:15:11;;;;;;;15.37;12.77;;;21.00;88.30;;;;;;5052412;28;20796;-80
2021/07/17 12:17:43;;;;;;;14.00;12.77;;;21.10;88.20;;;;;;5061989;28;20544;-80
2021/07/17 12:20:17;;;;;;;13.53;11.70;;;21.20;87.80;;;;;;5055658;28;20445;-79
2021/07/17 12:22:50;;;;;;;14.07;12.87;;;21.30;87.60;;;;;;5052746;28;20434;-82
2021/07/17 12:25:19;;;;;;;12.63;11.57;;;21.50;87.00;;;;;;5054605;28;20464;-81
2021/07/17 12:28:01;;;;;;;12.53;11.30;;;21.60;86.30;;;;;;5055023;28;20441;-78
2021/07/17 12:30:30;;;;;;;16.67;12.47;;;21.60;85.60;;;;;;5053026;28;20450;-80
2021/07/17 12:33:15;;;;;;;13.23;11.77;;;21.60;86.00;;;;;;5051044;28;20443;-79
2021/07/17 12:35:43;;;;;;;15.90;11.73;;;22.00;85.60;;;;;;5060204;28;20467;-80
2021/07/17 12:38:22;;;;;;;12.00;10.80;;;22.30;84.90;;;;;;5045838;28;20520;-80
2021/07/17 12:40:55;;;;;;;13.20;12.10;;;22.60;83.00;;;;;;5050088;28;20485;-79
2021/07/17 12:43:25;;;;;;;13.33;12.20;;;22.30;83.20;;;;;;5046833;28;20458;-78